sensor_id;sensor_type;location;lat;lon;timestamp;pressure;altitude;pressure_sealevel;temperature;humidity
64294;BME280;50636;45.596;5.258;2023-05-10T00:02:25;98677.53;;;14.74;79.30
64294;BME280;50636;45.596;5.258;2023-05-10T00:04:52;98674.09;;;14.73;79.54
64294;BME280;50636;45.596;5.258;2023-05-10T00:07:17;98671.19;;;14.63;78.92
64294;BME280;50636;45.596;5.258;2023-05-10T00:09:43;98669.88;;;14.54;78.95
64294;BME280;50636;45.596;5.258;2023-05-10T00:12:09;98664.13;;;14.45;80.77
64294;BME280;50636;45.596;5.258;2023-05-10T00:14:34;98657.78;;;14.46;80.39
64294;BME280;50636;45.596;5.258;2023-05-10T00:17:00;98655.16;;;14.46;80.41
64294;BME280;50636;45.596;5.258;2023-05-10T00:19:26;98647.81;;;14.48;79.96
64294;BME280;50636;45.596;5.258;2023-05-10T00:21:52;98644.94;;;14.50;79.27
64294;BME280;50636;45.596;5.258;2023-05-10T00:24:18;98652.56;;;14.58;78.46
64294;BME280;50636;45.596;5.258;2023-05-10T00:26:43;98651.31;;;14.61;77.50
64294;BME280;50636;45.596;5.258;2023-05-10T00:29:09;98647.34;;;14.39;77.60
64294;BME280;50636;45.596;5.258;2023-05-10T00:31:35;98646.94;;;14.24;75.84
64294;BME280;50636;45.596;5.258;2023-05-10T00:34:00;98652.75;;;14.14;76.42
64294;BME280;50636;45.596;5.258;2023-05-10T00:36:26;98661.56;;;13.96;76.73
64294;BME280;50636;45.596;5.258;2023-05-10T00:38:53;98666.97;;;13.83;78.19
64294;BME280;50636;45.596;5.258;2023-05-10T00:41:18;98668.53;;;13.72;78.83
64294;BME280;50636;45.596;5.258;2023-05-10T00:43:44;98669.25;;;13.61;79.28
64294;BME280;50636;45.596;5.258;2023-05-10T00:46:11;98682.56;;;13.48;79.62
64294;BME280;50636;45.596;5.258;2023-05-10T00:48:37;98694.00;;;13.42;80.82
64294;BME280;50636;45.596;5.258;2023-05-10T00:51:04;98688.44;;;13.50;81.69
64294;BME280;50636;45.596;5.258;2023-05-10T00:53:31;98685.06;;;13.79;82.55
64294;BME280;50636;45.596;5.258;2023-05-10T00:55:57;98689.13;;;14.12;81.70
64294;BME280;50636;45.596;5.258;2023-05-10T00:58:23;98688.53;;;14.29;80.98
64294;BME280;50636;45.596;5.258;2023-05-10T01:00:54;98691.44;;;14.39;79.02
64294;BME280;50636;45.596;5.258;2023-05-10T01:03:22;98694.19;;;14.44;77.67
64294;BME280;50636;45.596;5.258;2023-05-10T01:05:48;98695.00;;;14.45;77.20
64294;BME280;50636;45.596;5.258;2023-05-10T01:08:16;98693.16;;;14.45;77.63
64294;BME280;50636;45.596;5.258;2023-05-10T01:10:43;98689.47;;;14.46;77.96
64294;BME280;50636;45.596;5.258;2023-05-10T01:13:09;98688.81;;;14.51;77.90
64294;BME280;50636;45.596;5.258;2023-05-10T01:15:35;98685.56;;;14.67;78.78
64294;BME280;50636;45.596;5.258;2023-05-10T01:18:02;98685.34;;;14.81;76.74
64294;BME280;50636;45.596;5.258;2023-05-10T01:20:35;98684.44;;;14.75;75.54
64294;BME280;50636;45.596;5.258;2023-05-10T01:23:27;98683.28;;;14.71;76.12
64294;BME280;50636;45.596;5.258;2023-05-10T01:29:39;98696.03;;;14.74;76.93
64294;BME280;50636;45.596;5.258;2023-05-10T01:32:31;98693.63;;;14.84;75.04
64294;BME280;50636;45.596;5.258;2023-05-10T01:35:17;98686.75;;;14.83;73.42
64294;BME280;50636;45.596;5.258;2023-05-10T01:40:42;98690.19;;;14.84;73.46
64294;BME280;50636;45.596;5.258;2023-05-10T01:43:22;98698.31;;;14.82;72.83
64294;BME280;50636;45.596;5.258;2023-05-10T01:46:20;98688.34;;;14.84;73.28
64294;BME280;50636;45.596;5.258;2023-05-10T01:48:52;98698.09;;;14.84;72.37
64294;BME280;50636;45.596;5.258;2023-05-10T01:51:27;98694.88;;;14.82;73.38
64294;BME280;50636;45.596;5.258;2023-05-10T01:54:01;98693.19;;;14.87;73.32
64294;BME280;50636;45.596;5.258;2023-05-10T01:56:29;98697.56;;;14.93;73.73
64294;BME280;50636;45.596;5.258;2023-05-10T01:58:56;98689.72;;;14.98;72.40
64294;BME280;50636;45.596;5.258;2023-05-10T02:01:23;98692.72;;;15.02;72.39
64294;BME280;50636;45.596;5.258;2023-05-10T02:03:51;98689.28;;;15.02;73.33
64294;BME280;50636;45.596;5.258;2023-05-10T02:06:20;98690.78;;;14.97;73.50
64294;BME280;50636;45.596;5.258;2023-05-10T02:08:49;98691.78;;;14.96;74.12
64294;BME280;50636;45.596;5.258;2023-05-10T02:11:17;98693.28;;;15.04;74.22
64294;BME280;50636;45.596;5.258;2023-05-10T02:13:49;98696.41;;;15.13;73.90
64294;BME280;50636;45.596;5.258;2023-05-10T02:16:16;98693.19;;;15.23;73.07
64294;BME280;50636;45.596;5.258;2023-05-10T02:18:43;98694.59;;;15.25;72.75
64294;BME280;50636;45.596;5.258;2023-05-10T02:21:10;98698.13;;;15.19;73.32
64294;BME280;50636;45.596;5.258;2023-05-10T02:23:37;98700.19;;;15.29;73.72
64294;BME280;50636;45.596;5.258;2023-05-10T02:26:03;98699.28;;;15.35;73.51
64294;BME280;50636;45.596;5.258;2023-05-10T02:28:32;98698.25;;;15.48;73.37
64294;BME280;50636;45.596;5.258;2023-05-10T02:30:58;98702.03;;;15.52;72.10
64294;BME280;50636;45.596;5.258;2023-05-10T02:33:25;98698.22;;;15.60;72.42
64294;BME280;50636;45.596;5.258;2023-05-10T02:35:52;98700.41;;;15.74;71.52
64294;BME280;50636;45.596;5.258;2023-05-10T02:38:20;98703.03;;;15.86;70.86
64294;BME280;50636;45.596;5.258;2023-05-10T02:40:47;98702.28;;;16.03;70.96
64294;BME280;50636;45.596;5.258;2023-05-10T02:43:14;98702.28;;;16.31;71.27
64294;BME280;50636;45.596;5.258;2023-05-10T02:45:43;98701.16;;;16.56;72.40
64294;BME280;50636;45.596;5.258;2023-05-10T02:48:12;98701.97;;;16.56;74.07
64294;BME280;50636;45.596;5.258;2023-05-10T02:50:40;98704.50;;;16.51;75.33
64294;BME280;50636;45.596;5.258;2023-05-10T02:53:15;98698.56;;;16.44;76.50
64294;BME280;50636;45.596;5.258;2023-05-10T02:55:49;98698.13;;;16.35;77.55
64294;BME280;50636;45.596;5.258;2023-05-10T02:58:16;98701.84;;;16.34;78.99
64294;BME280;50636;45.596;5.258;2023-05-10T03:00:44;98698.06;;;16.30;79.54
64294;BME280;50636;45.596;5.258;2023-05-10T03:03:11;98701.00;;;16.05;79.01
64294;BME280;50636;45.596;5.258;2023-05-10T03:05:37;98704.19;;;15.78;79.82
64294;BME280;50636;45.596;5.258;2023-05-10T03:08:03;98707.56;;;15.74;80.98
64294;BME280;50636;45.596;5.258;2023-05-10T03:10:30;98707.19;;;15.70;81.24
64294;BME280;50636;45.596;5.258;2023-05-10T03:13:06;98707.03;;;15.89;81.84
64294;BME280;50636;45.596;5.258;2023-05-10T03:18:53;98708.91;;;16.17;81.52
64294;BME280;50636;45.596;5.258;2023-05-10T03:21:22;98707.63;;;16.20;82.72
64294;BME280;50636;45.596;5.258;2023-05-10T03:23:57;98711.56;;;16.17;83.46
64294;BME280;50636;45.596;5.258;2023-05-10T03:26:28;98709.72;;;16.17;84.48
64294;BME280;50636;45.596;5.258;2023-05-10T03:28:55;98712.16;;;16.07;84.76
64294;BME280;50636;45.596;5.258;2023-05-10T03:31:22;98711.63;;;15.93;84.67
64294;BME280;50636;45.596;5.258;2023-05-10T03:33:49;98707.41;;;15.81;84.90
64294;BME280;50636;45.596;5.258;2023-05-10T03:36:15;98699.47;;;15.57;84.20
64294;BME280;50636;45.596;5.258;2023-05-10T03:38:41;98705.69;;;15.51;85.76
64294;BME280;50636;45.596;5.258;2023-05-10T03:41:07;98708.25;;;15.57;86.19
64294;BME280;50636;45.596;5.258;2023-05-10T03:43:33;98711.69;;;15.58;85.64
64294;BME280;50636;45.596;5.258;2023-05-10T03:45:58;98698.91;;;15.55;85.47
64294;BME280;50636;45.596;5.258;2023-05-10T03:48:24;98708.34;;;15.51;85.10
64294;BME280;50636;45.596;5.258;2023-05-10T03:50:49;98710.41;;;15.49;85.12
64294;BME280;50636;45.596;5.258;2023-05-10T03:53:15;98704.31;;;15.48;85.37
64294;BME280;50636;45.596;5.258;2023-05-10T03:55:41;98710.53;;;15.54;85.80
64294;BME280;50636;45.596;5.258;2023-05-10T03:58:07;98711.69;;;15.58;85.61
64294;BME280;50636;45.596;5.258;2023-05-10T04:00:35;98707.53;;;15.62;85.08
64294;BME280;50636;45.596;5.258;2023-05-10T04:03:01;98710.84;;;15.69;84.94
64294;BME280;50636;45.596;5.258;2023-05-10T04:05:26;98717.78;;;15.58;83.81
64294;BME280;50636;45.596;5.258;2023-05-10T04:07:52;98711.56;;;15.53;84.48
64294;BME280;50636;45.596;5.258;2023-05-10T04:10:18;98706.75;;;15.62;84.97
64294;BME280;50636;45.596;5.258;2023-05-10T04:12:43;98719.03;;;15.68;84.68
64294;BME280;50636;45.596;5.258;2023-05-10T04:15:09;98726.72;;;15.81;84.30
64294;BME280;50636;45.596;5.258;2023-05-10T04:17:35;98723.28;;;15.81;83.53
64294;BME280;50636;45.596;5.258;2023-05-10T04:20:01;98725.59;;;15.77;83.36
64294;BME280;50636;45.596;5.258;2023-05-10T04:22:27;98707.31;;;15.75;82.55
64294;BME280;50636;45.596;5.258;2023-05-10T04:24:54;98723.41;;;15.86;81.00
64294;BME280;50636;45.596;5.258;2023-05-10T04:27:20;98717.28;;;15.85;79.61
64294;BME280;50636;45.596;5.258;2023-05-10T04:29:45;98729.88;;;15.78;78.58
64294;BME280;50636;45.596;5.258;2023-05-10T04:32:11;98731.94;;;15.76;78.52
64294;BME280;50636;45.596;5.258;2023-05-10T04:34:37;98735.38;;;15.76;78.72
64294;BME280;50636;45.596;5.258;2023-05-10T04:37:05;98729.50;;;15.63;76.24
64294;BME280;50636;45.596;5.258;2023-05-10T04:39:33;98728.56;;;15.57;77.05
64294;BME280;50636;45.596;5.258;2023-05-10T04:41:58;98737.69;;;15.73;78.15
64294;BME280;50636;45.596;5.258;2023-05-10T04:44:24;98731.66;;;15.89;77.37
64294;BME280;50636;45.596;5.258;2023-05-10T04:46:49;98738.06;;;16.05;76.88
64294;BME280;50636;45.596;5.258;2023-05-10T04:49:15;98727.22;;;16.18;75.74
64294;BME280;50636;45.596;5.258;2023-05-10T04:51:42;98739.38;;;16.31;74.93
64294;BME280;50636;45.596;5.258;2023-05-10T04:54:07;98730.16;;;16.34;74.54
64294;BME280;50636;45.596;5.258;2023-05-10T04:56:33;98734.97;;;16.37;74.21
64294;BME280;50636;45.596;5.258;2023-05-10T04:58:59;98732.34;;;16.37;73.63
64294;BME280;50636;45.596;5.258;2023-05-10T05:01:24;98737.84;;;16.35;72.78
64294;BME280;50636;45.596;5.258;2023-05-10T05:03:50;98742.84;;;16.32;72.65
64294;BME280;50636;45.596;5.258;2023-05-10T05:06:18;98747.09;;;16.33;71.50
64294;BME280;50636;45.596;5.258;2023-05-10T05:08:44;98753.13;;;16.45;71.02
64294;BME280;50636;45.596;5.258;2023-05-10T05:11:09;98749.16;;;16.60;69.85
64294;BME280;50636;45.596;5.258;2023-05-10T05:13:35;98756.88;;;16.61;68.67
64294;BME280;50636;45.596;5.258;2023-05-10T05:16:01;98767.25;;;16.63;67.49
64294;BME280;50636;45.596;5.258;2023-05-10T05:18:28;98758.53;;;16.50;65.06
64294;BME280;50636;45.596;5.258;2023-05-10T05:20:53;98764.69;;;16.39;65.58
64294;BME280;50636;45.596;5.258;2023-05-10T05:23:22;98761.69;;;16.35;64.45
64294;BME280;50636;45.596;5.258;2023-05-10T05:25:51;98767.25;;;16.34;64.24
64294;BME280;50636;45.596;5.258;2023-05-10T05:28:18;98770.03;;;16.56;63.65
64294;BME280;50636;45.596;5.258;2023-05-10T05:30:44;98781.69;;;16.72;62.37
64294;BME280;50636;45.596;5.258;2023-05-10T05:33:09;98776.75;;;18.16;58.91
64294;BME280;50636;45.596;5.258;2023-05-10T05:35:36;98767.72;;;20.11;53.24
64294;BME280;50636;45.596;5.258;2023-05-10T05:38:01;98767.34;;;21.63;48.32
64294;BME280;50636;45.596;5.258;2023-05-10T05:40:27;98766.06;;;22.75;44.37
64294;BME280;50636;45.596;5.258;2023-05-10T05:42:52;98768.09;;;23.57;42.93
64294;BME280;50636;45.596;5.258;2023-05-10T05:45:18;98771.78;;;24.33;41.59
64294;BME280;50636;45.596;5.258;2023-05-10T05:47:44;98767.66;;;24.98;39.30
64294;BME280;50636;45.596;5.258;2023-05-10T05:50:10;98774.16;;;25.44;38.51
64294;BME280;50636;45.596;5.258;2023-05-10T05:52:35;98783.25;;;25.89;37.22
64294;BME280;50636;45.596;5.258;2023-05-10T05:55:01;98773.78;;;26.20;36.30
64294;BME280;50636;45.596;5.258;2023-05-10T05:57:28;98767.31;;;26.71;35.68
64294;BME280;50636;45.596;5.258;2023-05-10T05:59:53;98769.69;;;27.18;34.29
64294;BME280;50636;45.596;5.258;2023-05-10T06:02:19;98767.38;;;27.56;33.08
64294;BME280;50636;45.596;5.258;2023-05-10T06:04:45;98762.41;;;27.81;31.92
64294;BME280;50636;45.596;5.258;2023-05-10T06:07:11;98760.63;;;28.25;31.66
64294;BME280;50636;45.596;5.258;2023-05-10T06:09:37;98761.34;;;28.65;29.49
64294;BME280;50636;45.596;5.258;2023-05-10T06:12:03;98757.66;;;28.96;29.21
64294;BME280;50636;45.596;5.258;2023-05-10T06:14:28;98758.09;;;29.24;28.68
64294;BME280;50636;45.596;5.258;2023-05-10T06:16:54;98763.66;;;29.66;28.30
64294;BME280;50636;45.596;5.258;2023-05-10T06:19:20;98768.47;;;29.99;26.79
64294;BME280;50636;45.596;5.258;2023-05-10T06:21:46;98768.38;;;30.17;26.99
64294;BME280;50636;45.596;5.258;2023-05-10T06:24:12;98765.81;;;30.41;25.97
64294;BME280;50636;45.596;5.258;2023-05-10T06:26:37;98760.34;;;30.50;25.77
64294;BME280;50636;45.596;5.258;2023-05-10T06:29:03;98753.13;;;30.75;25.27
64294;BME280;50636;45.596;5.258;2023-05-10T06:31:29;98762.13;;;30.88;24.39
64294;BME280;50636;45.596;5.258;2023-05-10T06:33:55;98761.22;;;30.96;24.46
64294;BME280;50636;45.596;5.258;2023-05-10T06:36:20;98767.06;;;31.19;24.00
64294;BME280;50636;45.596;5.258;2023-05-10T06:38:47;98768.19;;;31.18;24.31
64294;BME280;50636;45.596;5.258;2023-05-10T06:41:13;98769.16;;;31.47;23.72
64294;BME280;50636;45.596;5.258;2023-05-10T06:43:38;98764.69;;;31.63;22.96
64294;BME280;50636;45.596;5.258;2023-05-10T06:46:06;98757.19;;;31.73;22.46
64294;BME280;50636;45.596;5.258;2023-05-10T06:48:32;98756.75;;;32.20;22.27
64294;BME280;50636;45.596;5.258;2023-05-10T06:50:58;98756.22;;;32.42;21.91
64294;BME280;50636;45.596;5.258;2023-05-10T06:53:24;98768.09;;;32.50;21.52
64294;BME280;50636;45.596;5.258;2023-05-10T06:55:50;98773.25;;;32.15;22.18
64294;BME280;50636;45.596;5.258;2023-05-10T06:58:16;98768.72;;;32.19;21.47
64294;BME280;50636;45.596;5.258;2023-05-10T07:00:41;98772.44;;;32.27;21.96
64294;BME280;50636;45.596;5.258;2023-05-10T07:03:10;98780.75;;;32.18;21.65
64294;BME280;50636;45.596;5.258;2023-05-10T07:05:36;98778.97;;;32.50;21.42
64294;BME280;50636;45.596;5.258;2023-05-10T07:08:02;98782.72;;;30.80;22.16
64294;BME280;50636;45.596;5.258;2023-05-10T07:10:28;98787.97;;;27.83;25.30
64294;BME280;50636;45.596;5.258;2023-05-10T07:12:53;98787.53;;;26.82;27.00
64294;BME280;50636;45.596;5.258;2023-05-10T07:15:19;98787.91;;;27.75;26.07
64294;BME280;50636;45.596;5.258;2023-05-10T07:17:45;98792.03;;;27.72;25.92
64294;BME280;50636;45.596;5.258;2023-05-10T07:20:11;98796.50;;;26.27;27.49
64294;BME280;50636;45.596;5.258;2023-05-10T07:22:37;98800.75;;;24.94;29.69
64294;BME280;50636;45.596;5.258;2023-05-10T07:25:03;98808.41;;;24.43;30.91
64294;BME280;50636;45.596;5.258;2023-05-10T07:27:29;98808.94;;;25.02;30.42
64294;BME280;50636;45.596;5.258;2023-05-10T07:29:54;98806.56;;;25.66;29.74
64294;BME280;50636;45.596;5.258;2023-05-10T07:32:21;98792.81;;;26.37;28.68
64294;BME280;50636;45.596;5.258;2023-05-10T07:34:47;98808.94;;;27.10;28.07
64294;BME280;50636;45.596;5.258;2023-05-10T07:37:13;98806.72;;;28.37;25.91
64294;BME280;50636;45.596;5.258;2023-05-10T07:39:38;98795.47;;;29.70;24.25
64294;BME280;50636;45.596;5.258;2023-05-10T07:42:04;98793.88;;;31.33;22.26
64294;BME280;50636;45.596;5.258;2023-05-10T07:44:31;98795.44;;;31.80;21.87
64294;BME280;50636;45.596;5.258;2023-05-10T07:46:56;98797.91;;;32.34;20.73
64294;BME280;50636;45.596;5.258;2023-05-10T07:49:22;98792.41;;;32.06;21.21
64294;BME280;50636;45.596;5.258;2023-05-10T07:51:49;98802.41;;;30.69;22.51
64294;BME280;50636;45.596;5.258;2023-05-10T07:54:15;98804.53;;;29.18;23.77
64294;BME280;50636;45.596;5.258;2023-05-10T07:56:41;98811.19;;;29.12;24.19
64294;BME280;50636;45.596;5.258;2023-05-10T07:59:15;98802.16;;;28.73;24.44
64294;BME280;50636;45.596;5.258;2023-05-10T08:01:41;98806.84;;;28.32;24.92
64294;BME280;50636;45.596;5.258;2023-05-10T08:04:07;98815.56;;;27.49;25.80
64294;BME280;50636;45.596;5.258;2023-05-10T08:06:34;98803.25;;;28.63;25.39
64294;BME280;50636;45.596;5.258;2023-05-10T08:09:00;98809.72;;;29.96;23.68
64294;BME280;50636;45.596;5.258;2023-05-10T08:11:26;98799.25;;;31.54;22.40
64294;BME280;50636;45.596;5.258;2023-05-10T08:13:53;98792.56;;;32.50;20.68
64294;BME280;50636;45.596;5.258;2023-05-10T08:16:20;98798.94;;;31.35;21.01
64294;BME280;50636;45.596;5.258;2023-05-10T08:18:46;98803.81;;;29.47;22.64
64294;BME280;50636;45.596;5.258;2023-05-10T08:21:13;98797.41;;;28.70;24.22
64294;BME280;50636;45.596;5.258;2023-05-10T08:23:39;98795.28;;;30.43;23.02
64294;BME280;50636;45.596;5.258;2023-05-10T08:26:05;98787.94;;;31.52;21.79
64294;BME280;50636;45.596;5.258;2023-05-10T08:28:31;98781.81;;;32.41;20.34
64294;BME280;50636;45.596;5.258;2023-05-10T08:30:56;98795.81;;;32.96;20.24
64294;BME280;50636;45.596;5.258;2023-05-10T08:33:22;98790.41;;;33.72;19.13
64294;BME280;50636;45.596;5.258;2023-05-10T08:35:48;98793.09;;;33.56;18.83
64294;BME280;50636;45.596;5.258;2023-05-10T08:38:14;98795.78;;;32.15;20.19
64294;BME280;50636;45.596;5.258;2023-05-10T08:40:42;98801.91;;;30.75;21.11
64294;BME280;50636;45.596;5.258;2023-05-10T08:43:10;98810.41;;;29.11;22.76
64294;BME280;50636;45.596;5.258;2023-05-10T08:45:43;98816.34;;;27.81;24.75
64294;BME280;50636;45.596;5.258;2023-05-10T08:48:10;98820.75;;;26.78;26.12
64294;BME280;50636;45.596;5.258;2023-05-10T08:50:38;98821.34;;;26.10;26.23
64294;BME280;50636;45.596;5.258;2023-05-10T08:53:09;98826.38;;;25.70;26.07
64294;BME280;50636;45.596;5.258;2023-05-10T08:55:35;98824.50;;;25.19;26.93
64294;BME280;50636;45.596;5.258;2023-05-10T08:58:03;98824.06;;;24.79;27.59
64294;BME280;50636;45.596;5.258;2023-05-10T09:00:29;98825.03;;;24.45;28.29
64294;BME280;50636;45.596;5.258;2023-05-10T09:02:57;98824.13;;;24.31;28.27
64294;BME280;50636;45.596;5.258;2023-05-10T09:05:23;98819.72;;;24.40;28.09
64294;BME280;50636;45.596;5.258;2023-05-10T09:07:49;98820.09;;;24.09;28.81
64294;BME280;50636;45.596;5.258;2023-05-10T09:10:15;98832.69;;;23.85;29.38
64294;BME280;50636;45.596;5.258;2023-05-10T09:12:41;98834.03;;;23.53;30.04
64294;BME280;50636;45.596;5.258;2023-05-10T09:15:09;98827.81;;;23.28;30.78
64294;BME280;50636;45.596;5.258;2023-05-10T09:17:36;98830.84;;;23.17;30.53
64294;BME280;50636;45.596;5.258;2023-05-10T09:20:03;98827.34;;;23.21;31.03
64294;BME280;50636;45.596;5.258;2023-05-10T09:22:30;98846.69;;;23.13;31.36
64294;BME280;50636;45.596;5.258;2023-05-10T09:25:14;98844.81;;;22.64;31.95
64294;BME280;50636;45.596;5.258;2023-05-10T09:27:41;98848.44;;;22.33;33.09
64294;BME280;50636;45.596;5.258;2023-05-10T09:30:11;98850.91;;;22.04;33.74
64294;BME280;50636;45.596;5.258;2023-05-10T09:32:44;98859.16;;;22.03;33.94
64294;BME280;50636;45.596;5.258;2023-05-10T09:37:39;98859.41;;;22.22;34.16
64294;BME280;50636;45.596;5.258;2023-05-10T09:40:08;98857.81;;;22.16;34.33
64294;BME280;50636;45.596;5.258;2023-05-10T09:42:36;98855.72;;;21.92;33.13
64294;BME280;50636;45.596;5.258;2023-05-10T09:45:05;98852.03;;;21.31;34.02
64294;BME280;50636;45.596;5.258;2023-05-10T09:47:35;98863.75;;;21.10;34.63
64294;BME280;50636;45.596;5.258;2023-05-10T09:50:03;98866.66;;;20.93;34.39
64294;BME280;50636;45.596;5.258;2023-05-10T09:52:30;98863.16;;;20.77;35.15
64294;BME280;50636;45.596;5.258;2023-05-10T09:55:10;98864.72;;;20.73;35.37
64294;BME280;50636;45.596;5.258;2023-05-10T09:57:36;98868.44;;;20.67;35.75
64294;BME280;50636;45.596;5.258;2023-05-10T10:00:02;98873.25;;;20.70;35.72
64294;BME280;50636;45.596;5.258;2023-05-10T10:02:30;98873.03;;;20.87;36.30
64294;BME280;50636;45.596;5.258;2023-05-10T10:04:57;98873.31;;;20.95;35.73
64294;BME280;50636;45.596;5.258;2023-05-10T10:07:23;98877.56;;;20.97;35.72
64294;BME280;50636;45.596;5.258;2023-05-10T10:09:53;98872.00;;;20.93;35.75
64294;BME280;50636;45.596;5.258;2023-05-10T10:12:19;98866.91;;;20.91;35.50
64294;BME280;50636;45.596;5.258;2023-05-10T10:14:48;98881.31;;;20.85;35.45
64294;BME280;50636;45.596;5.258;2023-05-10T10:17:17;98881.56;;;20.84;35.54
64294;BME280;50636;45.596;5.258;2023-05-10T10:19:43;98880.22;;;20.81;35.88
64294;BME280;50636;45.596;5.258;2023-05-10T10:22:10;98884.22;;;20.79;36.02
64294;BME280;50636;45.596;5.258;2023-05-10T10:24:38;98866.84;;;20.76;36.00
64294;BME280;50636;45.596;5.258;2023-05-10T10:27:19;98868.66;;;20.60;36.63
64294;BME280;50636;45.596;5.258;2023-05-10T10:30:00;98870.44;;;20.44;36.61
64294;BME280;50636;45.596;5.258;2023-05-10T10:32:53;98864.81;;;20.30;37.15
64294;BME280;50636;45.596;5.258;2023-05-10T10:35:24;98857.53;;;20.15;37.20
64294;BME280;50636;45.596;5.258;2023-05-10T10:37:50;98862.41;;;20.29;37.38
64294;BME280;50636;45.596;5.258;2023-05-10T10:40:29;98847.91;;;20.67;37.20
64294;BME280;50636;45.596;5.258;2023-05-10T10:42:57;98857.56;;;20.94;36.54
64294;BME280;50636;45.596;5.258;2023-05-10T10:45:24;98850.94;;;21.32;35.86
64294;BME280;50636;45.596;5.258;2023-05-10T10:48:43;98847.72;;;21.77;35.66
64294;BME280;50636;45.596;5.258;2023-05-10T10:51:01;98853.78;;;22.18;34.28
64294;BME280;50636;45.596;5.258;2023-05-10T10:53:28;98849.22;;;22.29;34.42
64294;BME280;50636;45.596;5.258;2023-05-10T10:56:21;98856.47;;;22.13;34.39
64294;BME280;50636;45.596;5.258;2023-05-10T10:58:49;98858.34;;;22.18;34.36
64294;BME280;50636;45.596;5.258;2023-05-10T11:01:19;98857.59;;;21.97;33.95
64294;BME280;50636;45.596;5.258;2023-05-10T11:06:34;98847.34;;;22.40;33.59
64294;BME280;50636;45.596;5.258;2023-05-10T11:09:11;98845.66;;;22.54;32.40
64294;BME280;50636;45.596;5.258;2023-05-10T11:11:54;98839.22;;;22.60;33.41
64294;BME280;50636;45.596;5.258;2023-05-10T11:14:23;98846.84;;;22.82;33.37
64294;BME280;50636;45.596;5.258;2023-05-10T11:16:50;98844.53;;;23.10;32.78
64294;BME280;50636;45.596;5.258;2023-05-10T11:19:16;98853.16;;;23.02;32.55
64294;BME280;50636;45.596;5.258;2023-05-10T11:21:48;98848.69;;;22.92;31.72
64294;BME280;50636;45.596;5.258;2023-05-10T11:24:21;98847.00;;;23.01;31.46
64294;BME280;50636;45.596;5.258;2023-05-10T11:26:50;98843.78;;;22.99;31.43
64294;BME280;50636;45.596;5.258;2023-05-10T11:29:19;98838.78;;;22.87;31.71
64294;BME280;50636;45.596;5.258;2023-05-10T11:31:46;98834.66;;;23.10;31.46
64294;BME280;50636;45.596;5.258;2023-05-10T11:34:23;98838.13;;;23.45;30.72
64294;BME280;50636;45.596;5.258;2023-05-10T11:36:53;98836.09;;;23.61;30.25
64294;BME280;50636;45.596;5.258;2023-05-10T11:39:20;98838.63;;;23.82;30.42
64294;BME280;50636;45.596;5.258;2023-05-10T11:41:49;98835.25;;;23.95;30.17
64294;BME280;50636;45.596;5.258;2023-05-10T11:44:15;98839.50;;;24.01;29.56
64294;BME280;50636;45.596;5.258;2023-05-10T11:46:41;98830.22;;;24.12;30.13
64294;BME280;50636;45.596;5.258;2023-05-10T11:49:07;98833.47;;;24.33;29.59
64294;BME280;50636;45.596;5.258;2023-05-10T11:51:36;98839.47;;;24.49;29.36
64294;BME280;50636;45.596;5.258;2023-05-10T11:54:09;98834.56;;;24.76;28.85
64294;BME280;50636;45.596;5.258;2023-05-10T11:56:39;98836.25;;;24.71;28.88
64294;BME280;50636;45.596;5.258;2023-05-10T11:59:05;98837.47;;;24.60;29.12
64294;BME280;50636;45.596;5.258;2023-05-10T12:01:31;98844.66;;;24.41;29.25
64294;BME280;50636;45.596;5.258;2023-05-10T12:03:58;98835.53;;;24.18;29.18
64294;BME280;50636;45.596;5.258;2023-05-10T12:06:30;98829.63;;;23.97;29.65
64294;BME280;50636;45.596;5.258;2023-05-10T12:08:57;98826.31;;;24.05;29.23
64294;BME280;50636;45.596;5.258;2023-05-10T12:11:27;98821.66;;;24.35;28.70
64294;BME280;50636;45.596;5.258;2023-05-10T12:13:54;98824.63;;;24.76;28.38
64294;BME280;50636;45.596;5.258;2023-05-10T12:16:22;98830.13;;;25.04;27.74
64294;BME280;50636;45.596;5.258;2023-05-10T12:18:50;98821.88;;;25.66;27.42
64294;BME280;50636;45.596;5.258;2023-05-10T12:21:19;98814.34;;;26.23;26.61
64294;BME280;50636;45.596;5.258;2023-05-10T12:23:46;98807.16;;;26.60;26.39
64294;BME280;50636;45.596;5.258;2023-05-10T12:26:13;98806.25;;;26.87;25.76
64294;BME280;50636;45.596;5.258;2023-05-10T12:28:38;98792.84;;;27.41;25.30
64294;BME280;50636;45.596;5.258;2023-05-10T12:31:06;98800.66;;;28.32;23.33
64294;BME280;50636;45.596;5.258;2023-05-10T12:33:44;98794.34;;;28.97;22.76
64294;BME280;50636;45.596;5.258;2023-05-10T12:36:13;98790.13;;;29.52;22.56
64294;BME280;50636;45.596;5.258;2023-05-10T12:38:41;98786.41;;;28.83;22.45
64294;BME280;50636;45.596;5.258;2023-05-10T12:41:15;98794.41;;;28.05;23.54
64294;BME280;50636;45.596;5.258;2023-05-10T12:43:41;98791.19;;;28.52;23.48
64294;BME280;50636;45.596;5.258;2023-05-10T12:46:15;98794.38;;;29.15;22.34
64294;BME280;50636;45.596;5.258;2023-05-10T12:48:42;98786.88;;;29.03;21.98
64294;BME280;50636;45.596;5.258;2023-05-10T12:51:09;98780.19;;;28.39;22.84
64294;BME280;50636;45.596;5.258;2023-05-10T12:53:37;98785.50;;;28.04;23.15
64294;BME280;50636;45.596;5.258;2023-05-10T12:56:03;98778.53;;;27.63;24.07
64294;BME280;50636;45.596;5.258;2023-05-10T12:58:29;98777.59;;;27.68;24.02
64294;BME280;50636;45.596;5.258;2023-05-10T13:00:55;98770.19;;;27.82;23.67
64294;BME280;50636;45.596;5.258;2023-05-10T13:03:22;98774.00;;;28.47;22.40
64294;BME280;50636;45.596;5.258;2023-05-10T13:05:48;98785.66;;;27.99;22.24
64294;BME280;50636;45.596;5.258;2023-05-10T13:08:14;98781.81;;;27.52;23.14
64294;BME280;50636;45.596;5.258;2023-05-10T13:10:40;98787.34;;;27.86;22.98
64294;BME280;50636;45.596;5.258;2023-05-10T13:13:06;98789.06;;;27.82;23.60
64294;BME280;50636;45.596;5.258;2023-05-10T13:15:32;98781.53;;;27.30;23.23
64294;BME280;50636;45.596;5.258;2023-05-10T13:17:58;98767.44;;;27.11;23.21
64294;BME280;50636;45.596;5.258;2023-05-10T13:20:24;98777.13;;;27.35;23.11